Portada
METAR-TAF:

METAR-TAF

Aeroports :

Pryor Field Regional Airport

Decatur, Alabama, Estats Units d'Amèrica

latitud: 34-39-29N, longitud: 086-56-36W, altitud: 180 m

Observació

L'informe es va fer fa 1 hora i 8 minuts, a les 12:53 UTC
Vent 9 kt del Nord
Temperatura 8°C
Humitat 93%
Pressió 1013 hPa
Visibilitat: 16.1 km
Escasses núvols a una alçada de 1400 ft
Cel ennuvolat a una alçada de 4800 ft
Cel cobert a una alçada de 6000 ft
pluja

METAR: KDCU 311253Z AUTO 01009KT 10SM RA FEW014 BKN048 OVC060 08/07 A2990 RMK AO2 WSHFT 1207 SLP122 P0020 T00830072 $

Hora: 09:01 (14:01 UTC)


TAF: manca

Observacions i pronòstics meteorològics de més de 4000 aeroports (METAR i TAF).

Les estacions disponibles són els punts grocs i vermells al mapa.

Posi el ratolí al punt desitjat per veure el nom de l'estació.

Feu clic per veure les observacions i els pronòstics meteorològics.

Per canviar el mapa: feu clic els botons verds amb una creu de color negre per apropar; al botó verd amb un guió per allunyar la imatge; o en les fletxes verdes per a mapes adjacents.


METAR-TAF: